Terminal Aerodrome Forecast
Issued by NWS

Home | Current Version | Previous Version | Text Only | Print | Product List | Glossary On
Versions: 1 2 3 4 5 6 7 8 9 10 11 12 13 14 15 16 17 18 19 20 21 22 23 24 25 26
000
FTUS42 KFFC 290536
TAFPDK
TAF
KPDK 290536Z 2906/3006 08003KT 5SM BR SCT008
     FM290900 08003KT 2SM BR BKN005
     FM291400 13004KT P6SM BKN025
     FM291700 13005KT P6SM SCT035 PROB30 2919/2922 5SM TSRA BKN025CB
     FM300200 13005KT P6SM FEW040 SCT120=

USA.gov is the U.S. government's official web portal to all federal, state and local government web resources and services.